createdAt,value
2022-09-12T00:01:21.219Z,15.70
2022-09-12T00:03:53.593Z,15.30
2022-09-12T00:06:23.561Z,15.50
2022-09-12T00:08:51.887Z,15.30
2022-09-12T00:11:19.971Z,15.40
2022-09-12T00:13:48.186Z,15.20
2022-09-12T00:16:18.048Z,15.50
2022-09-12T00:18:47.454Z,15.60
2022-09-12T00:21:18.475Z,15.80
2022-09-12T00:23:47.172Z,15.90
2022-09-12T00:26:17.465Z,15.90
2022-09-12T00:28:46.348Z,15.80
2022-09-12T00:31:17.441Z,15.90
2022-09-12T00:33:46.303Z,15.90
2022-09-12T00:36:18.317Z,15.90
2022-09-12T00:38:47.238Z,15.50
2022-09-12T00:41:19.153Z,15.20
2022-09-12T00:43:49.252Z,15.20
2022-09-12T00:46:28.306Z,15.00
2022-09-12T00:49:00.888Z,15.20
2022-09-12T00:51:32.813Z,15.30
2022-09-12T00:54:04.101Z,15.40
2022-09-12T00:56:33.395Z,15.60
2022-09-12T00:59:06.241Z,15.30
2022-09-12T01:01:35.345Z,15.40
2022-09-12T01:04:04.132Z,15.60
2022-09-12T01:06:37.279Z,15.60
2022-09-12T01:09:06.498Z,15.70
2022-09-12T01:11:38.456Z,15.70
2022-09-12T01:14:07.653Z,15.70
2022-09-12T01:16:37.913Z,15.30
2022-09-12T01:19:26.631Z,15.40
2022-09-12T01:22:13.647Z,15.50
2022-09-12T01:24:55.299Z,15.60
2022-09-12T01:27:38.083Z,15.60
2022-09-12T01:30:48.329Z,15.70
2022-09-12T01:33:37.726Z,15.70
2022-09-12T01:36:24.653Z,15.70
2022-09-12T01:39:00.406Z,15.70
2022-09-12T01:41:32.456Z,15.70
2022-09-12T01:44:06.940Z,15.70
2022-09-12T01:46:43.868Z,15.70
2022-09-12T01:49:19.096Z,15.60
2022-09-12T01:51:58.393Z,15.60
2022-09-12T01:54:33.101Z,15.60
2022-09-12T01:57:07.632Z,15.30
2022-09-12T01:59:40.732Z,15.20
2022-09-12T02:02:13.681Z,15.20
2022-09-12T02:04:48.828Z,15.30
2022-09-12T02:07:21.426Z,15.30
2022-09-12T02:09:55.585Z,15.40
2022-09-12T02:12:27.645Z,15.40
2022-09-12T02:15:01.023Z,15.40
2022-09-12T02:17:31.690Z,15.20
2022-09-12T02:20:07.225Z,15.30
2022-09-12T02:22:38.816Z,15.20
2022-09-12T02:25:11.800Z,15.20
2022-09-12T02:27:43.583Z,15.20
2022-09-12T02:30:14.433Z,15.30
2022-09-12T02:32:48.438Z,15.30
2022-09-12T02:35:26.076Z,15.30
2022-09-12T02:38:02.180Z,15.20
2022-09-12T02:40:31.175Z,15.20
2022-09-12T02:42:59.784Z,15.30
2022-09-12T02:45:29.516Z,15.30
2022-09-12T02:48:01.264Z,15.20
2022-09-12T02:50:31.384Z,15.20
2022-09-12T02:53:04.635Z,15.00
2022-09-12T02:55:34.380Z,15.10
2022-09-12T02:58:04.086Z,15.10
2022-09-12T03:00:39.083Z,15.20
2022-09-12T03:03:22.087Z,14.80
2022-09-12T03:05:59.036Z,14.40
2022-09-12T03:08:49.108Z,14.60
2022-09-12T03:11:34.153Z,14.60
2022-09-12T03:14:22.632Z,14.40
2022-09-12T03:17:02.947Z,14.30
2022-09-12T03:19:40.539Z,14.50
2022-09-12T03:22:16.901Z,14.60
2022-09-12T03:24:53.047Z,14.60
2022-09-12T03:27:28.896Z,14.70
2022-09-12T03:29:57.840Z,14.70
2022-09-12T03:32:41.563Z,14.60
2022-09-12T03:35:10.688Z,14.60
2022-09-12T03:37:40.251Z,14.40
2022-09-12T03:40:10.184Z,14.50
2022-09-12T03:42:38.675Z,14.50
2022-09-12T03:45:08.348Z,14.60
2022-09-12T03:47:36.896Z,14.60
2022-09-12T03:50:05.489Z,14.60
2022-09-12T03:52:33.749Z,14.60
2022-09-12T03:55:03.676Z,14.70
2022-09-12T03:57:32.262Z,14.60
2022-09-12T04:00:02.314Z,14.60
2022-09-12T04:02:40.647Z,14.60
2022-09-12T04:05:09.320Z,14.60
2022-09-12T04:07:37.475Z,14.50
2022-09-12T04:10:09.622Z,14.60
2022-09-12T04:12:39.551Z,14.50
2022-09-12T04:15:09.035Z,14.40
2022-09-12T04:17:37.240Z,14.50
2022-09-12T04:20:06.383Z,14.50
2022-09-12T04:22:34.709Z,14.40
2022-09-12T04:25:03.489Z,14.40
2022-09-12T04:27:33.475Z,14.40
2022-09-12T04:30:02.484Z,14.40
2022-09-12T04:32:31.995Z,14.40
2022-09-12T04:35:00.215Z,14.40
2022-09-12T04:37:28.468Z,14.40
2022-09-12T04:39:58.104Z,14.40
2022-09-12T04:42:26.495Z,14.30
2022-09-12T04:44:56.473Z,14.40
2022-09-12T04:47:24.688Z,14.40
2022-09-12T04:49:53.095Z,14.40
2022-09-12T04:52:21.382Z,14.40
2022-09-12T04:54:49.792Z,14.40
2022-09-12T04:57:18.351Z,14.30
2022-09-12T04:59:49.768Z,14.30
2022-09-12T05:02:19.465Z,14.30
2022-09-12T05:04:48.289Z,14.30
2022-09-12T05:07:16.522Z,14.30
2022-09-12T05:09:44.812Z,14.30
2022-09-12T05:12:14.594Z,14.30
2022-09-12T05:14:42.762Z,14.30
2022-09-12T05:17:11.441Z,14.40
2022-09-12T05:19:40.938Z,14.30
2022-09-12T05:22:09.829Z,14.30
2022-09-12T05:24:39.438Z,14.20
2022-09-12T05:27:07.707Z,14.20
2022-09-12T05:29:36.047Z,14.20
2022-09-12T05:32:13.447Z,14.10
2022-09-12T05:34:43.166Z,14.10
2022-09-12T05:37:11.300Z,14.10
2022-09-12T05:39:39.647Z,14.10
2022-09-12T05:42:08.010Z,14.10
2022-09-12T05:44:36.494Z,14.10
2022-09-12T05:47:04.891Z,14.10
2022-09-12T05:49:33.064Z,14.10
2022-09-12T05:52:03.371Z,14.20
2022-09-12T05:54:31.916Z,14.20
2022-09-12T05:57:00.076Z,14.30
2022-09-12T05:59:28.947Z,14.30
2022-09-12T06:01:57.245Z,14.30
2022-09-12T06:04:26.412Z,14.40
2022-09-12T06:06:54.605Z,14.40
2022-09-12T06:09:25.606Z,14.40
2022-09-12T06:11:53.866Z,14.40
2022-09-12T06:14:22.411Z,14.30
2022-09-12T06:16:50.708Z,14.30
2022-09-12T06:19:21.632Z,14.40
2022-09-12T06:21:51.645Z,14.40
2022-09-12T06:24:21.110Z,14.50
2022-09-12T06:27:40.098Z,14.30
2022-09-12T06:30:11.615Z,14.20
2022-09-12T06:32:39.762Z,14.30
2022-09-12T06:35:08.658Z,14.30
2022-09-12T06:37:36.801Z,14.40
2022-09-12T06:40:05.869Z,14.30
2022-09-12T06:42:34.661Z,14.10
2022-09-12T06:45:02.982Z,14.10
2022-09-12T06:47:33.029Z,14.10
2022-09-12T06:50:01.758Z,14.30
2022-09-12T06:52:30.244Z,14.40
2022-09-12T06:54:58.436Z,14.30
2022-09-12T06:57:30.343Z,14.30
2022-09-12T06:59:59.031Z,14.30
2022-09-12T07:02:27.260Z,14.30
2022-09-12T07:04:57.023Z,14.40
2022-09-12T07:07:25.290Z,14.40
2022-09-12T07:09:54.092Z,14.50
2022-09-12T07:12:22.233Z,14.40
2022-09-12T07:14:50.339Z,14.50
2022-09-12T07:17:18.486Z,14.60
2022-09-12T07:19:46.932Z,14.70
2022-09-12T07:22:16.460Z,14.90
2022-09-12T07:24:45.871Z,14.80
2022-09-12T07:27:14.016Z,14.90
2022-09-12T07:29:42.249Z,14.90
2022-09-12T07:32:10.716Z,14.90
2022-09-12T07:34:39.024Z,15.00
2022-09-12T07:37:07.156Z,15.00
2022-09-12T07:39:37.899Z,15.10
2022-09-12T07:42:06.975Z,15.10
2022-09-12T07:44:35.369Z,15.10
2022-09-12T07:47:04.696Z,15.20
2022-09-12T07:49:32.952Z,15.30
2022-09-12T07:52:01.154Z,15.30
2022-09-12T07:54:29.292Z,15.40
2022-09-12T07:56:58.853Z,15.50
2022-09-12T07:59:50.892Z,15.50
2022-09-12T08:02:17.674Z,15.70
2022-09-12T08:04:46.644Z,15.70
2022-09-12T08:07:14.691Z,15.70
2022-09-12T08:09:42.906Z,15.70
2022-09-12T08:12:12.408Z,15.80
2022-09-12T08:14:40.917Z,15.90
2022-09-12T08:17:09.228Z,16.00
2022-09-12T08:19:38.397Z,16.00
2022-09-12T08:22:06.684Z,16.10
2022-09-12T08:24:34.940Z,16.10
2022-09-12T08:27:03.102Z,16.20
2022-09-12T08:29:32.721Z,16.20
2022-09-12T08:32:01.059Z,16.20
2022-09-12T08:34:29.324Z,16.30
2022-09-12T08:36:57.777Z,16.30
2022-09-12T08:39:26.063Z,16.50
2022-09-12T08:42:03.096Z,16.60
2022-09-12T08:45:02.865Z,16.70
2022-09-12T08:47:35.306Z,16.70
2022-09-12T08:50:17.953Z,16.90
2022-09-12T08:52:58.738Z,17.00
2022-09-12T08:55:32.239Z,17.00
2022-09-12T08:58:01.532Z,17.00
2022-09-12T09:00:42.551Z,17.10
2022-09-12T09:03:56.522Z,17.30
2022-09-12T09:06:50.339Z,17.40
2022-09-12T09:09:29.344Z,17.60
2022-09-12T09:12:08.276Z,17.90
2022-09-12T09:15:06.026Z,18.20
2022-09-12T09:17:39.996Z,18.50
2022-09-12T09:20:17.372Z,18.30
2022-09-12T09:22:50.555Z,18.10
2022-09-12T09:25:23.157Z,18.10
2022-09-12T09:27:59.494Z,18.10
2022-09-12T09:30:28.668Z,18.30
2022-09-12T09:33:00.956Z,18.20
2022-09-12T09:35:41.727Z,18.10
2022-09-12T09:38:34.935Z,18.00
2022-09-12T09:41:21.561Z,18.20
2022-09-12T09:43:49.788Z,18.30
2022-09-12T09:46:18.494Z,18.40
2022-09-12T09:48:50.735Z,18.40
2022-09-12T09:51:25.127Z,18.40
2022-09-12T09:53:55.935Z,18.50
2022-09-12T09:56:29.819Z,18.60
2022-09-12T09:58:58.123Z,18.70
2022-09-12T10:01:27.510Z,18.90
2022-09-12T10:03:58.514Z,19.00
2022-09-12T10:06:32.441Z,19.10
2022-09-12T10:09:20.044Z,19.10
2022-09-12T10:11:49.107Z,19.20
2022-09-12T10:14:37.735Z,19.40
2022-09-12T10:17:34.166Z,19.90
2022-09-12T10:20:20.453Z,19.90
2022-09-12T10:22:50.651Z,19.60
2022-09-12T10:25:21.274Z,19.70
2022-09-12T10:27:56.435Z,19.70
2022-09-12T10:30:28.295Z,19.60
2022-09-12T10:33:06.588Z,19.70
2022-09-12T10:35:47.069Z,19.90
2022-09-12T10:38:22.619Z,20.00
2022-09-12T10:40:59.895Z,19.80
2022-09-12T10:43:31.096Z,19.90
2022-09-12T10:46:00.232Z,20.00
2022-09-12T10:48:31.780Z,20.20
2022-09-12T10:51:02.576Z,20.40
2022-09-12T10:53:34.860Z,20.40
2022-09-12T10:56:11.186Z,20.50
2022-09-12T10:59:12.137Z,20.60
2022-09-12T11:01:44.450Z,20.60
2022-09-12T11:04:44.133Z,20.70
2022-09-12T11:07:30.441Z,20.80
2022-09-12T11:10:07.378Z,21.10
2022-09-12T11:12:44.836Z,21.00
2022-09-12T11:15:32.052Z,21.00
2022-09-12T11:18:10.196Z,21.30
2022-09-12T11:21:09.453Z,21.70
2022-09-12T11:23:59.331Z,21.50
2022-09-12T11:26:43.047Z,21.60
2022-09-12T11:29:22.512Z,21.60
2022-09-12T11:32:11.893Z,21.60
2022-09-12T11:34:53.409Z,21.80
2022-09-12T11:37:43.695Z,21.90
2022-09-12T11:40:28.549Z,21.90
2022-09-12T11:43:00.713Z,21.80
2022-09-12T11:45:34.299Z,21.80
2022-09-12T11:48:08.643Z,22.00
2022-09-12T11:50:37.371Z,22.10
2022-09-12T11:53:14.095Z,22.10
2022-09-12T11:55:54.458Z,22.10
2022-09-12T11:58:28.744Z,22.20
2022-09-12T12:01:00.304Z,22.20
2022-09-12T12:03:35.611Z,22.20
2022-09-12T12:06:07.478Z,22.30
2022-09-12T12:08:41.525Z,22.40
2022-09-12T12:11:13.585Z,22.70
2022-09-12T12:13:47.865Z,23.00
2022-09-12T12:16:22.536Z,23.30
2022-09-12T12:18:56.971Z,23.70
2022-09-12T12:21:40.634Z,23.40
2022-09-12T12:24:19.096Z,23.40
2022-09-12T12:26:59.043Z,23.20
2022-09-12T12:29:48.304Z,23.10
2022-09-12T12:32:24.960Z,23.10
2022-09-12T12:35:23.589Z,23.10
2022-09-12T12:37:58.910Z,23.60
2022-09-12T12:40:29.840Z,23.50
2022-09-12T12:43:32.052Z,23.30
2022-09-12T12:46:07.911Z,23.40
2022-09-12T12:48:56.131Z,23.40
2022-09-12T12:51:57.441Z,23.60
2022-09-12T12:54:35.637Z,24.00
2022-09-12T12:57:28.237Z,24.50
2022-09-12T13:00:02.416Z,24.20
2022-09-12T13:02:35.553Z,24.10
2022-09-12T13:05:08.006Z,24.00
2022-09-12T13:07:39.593Z,23.80
2022-09-12T13:10:09.158Z,23.90
2022-09-12T13:12:45.475Z,24.10
2022-09-12T13:15:52.745Z,24.20
2022-09-12T13:18:29.190Z,24.20
2022-09-12T13:21:07.904Z,24.20
2022-09-12T13:23:36.319Z,24.10
2022-09-12T13:26:11.425Z,24.00
2022-09-12T13:28:40.017Z,24.20
2022-09-12T13:31:18.629Z,24.20
2022-09-12T13:33:51.161Z,24.50
2022-09-12T13:36:44.365Z,24.90
2022-09-12T13:39:17.871Z,25.30
2022-09-12T13:42:21.886Z,25.50
2022-09-12T13:44:52.928Z,25.10
2022-09-12T13:47:25.907Z,25.30
2022-09-12T13:49:56.806Z,25.60
2022-09-12T13:52:29.249Z,25.90
2022-09-12T13:55:00.241Z,26.20
2022-09-12T13:57:31.718Z,26.50
2022-09-12T14:00:02.018Z,26.80
2022-09-12T14:02:37.746Z,26.60
2022-09-12T14:05:22.165Z,25.90
2022-09-12T14:07:56.338Z,25.50
2022-09-12T14:10:30.287Z,25.10
2022-09-12T14:12:59.669Z,24.90
2022-09-12T14:15:31.331Z,24.70
2022-09-12T14:18:01.923Z,24.70
2022-09-12T14:20:33.085Z,24.90
2022-09-12T14:23:03.662Z,25.10
2022-09-12T14:25:39.082Z,25.00
2022-09-12T14:28:07.809Z,25.00
2022-09-12T14:30:37.821Z,24.90
2022-09-12T14:33:21.972Z,25.00
2022-09-12T14:35:53.993Z,25.00
2022-09-12T14:38:32.488Z,25.00
2022-09-12T14:41:02.852Z,25.00
2022-09-12T14:43:33.064Z,25.00
2022-09-12T14:46:03.734Z,24.80
2022-09-12T14:48:36.787Z,24.90
2022-09-12T14:51:07.490Z,25.00
2022-09-12T14:53:37.818Z,24.90
2022-09-12T14:56:11.270Z,25.00
2022-09-12T14:58:40.643Z,24.90
2022-09-12T15:01:27.281Z,24.80
2022-09-12T15:03:57.535Z,24.90
2022-09-12T15:06:30.063Z,25.00
2022-09-12T15:09:00.795Z,24.90
2022-09-12T15:11:29.426Z,24.80
2022-09-12T15:13:58.023Z,24.80
2022-09-12T15:16:26.334Z,24.80
2022-09-12T15:18:54.557Z,24.80
2022-09-12T15:21:22.890Z,24.70
2022-09-12T15:23:53.999Z,24.80
2022-09-12T15:26:24.302Z,24.80
2022-09-12T15:28:52.468Z,24.90
2022-09-12T15:31:25.839Z,25.10
2022-09-12T15:33:54.619Z,25.00
2022-09-12T15:36:23.998Z,25.00
2022-09-12T15:38:54.351Z,24.90
2022-09-12T15:41:24.280Z,24.90
2022-09-12T15:43:53.245Z,24.90
2022-09-12T15:46:21.872Z,24.80
2022-09-12T15:48:50.330Z,24.80
2022-09-12T15:51:20.104Z,24.80
2022-09-12T15:53:49.863Z,24.90
2022-09-12T15:56:21.024Z,24.90
2022-09-12T15:58:58.764Z,24.90
2022-09-12T16:01:28.910Z,24.90
2022-09-12T16:03:57.428Z,24.80
2022-09-12T16:06:25.677Z,24.90
2022-09-12T16:08:54.025Z,24.80
2022-09-12T16:11:25.952Z,24.80
2022-09-12T16:13:55.253Z,24.80
2022-09-12T16:16:23.922Z,24.80
2022-09-12T16:18:52.252Z,24.90
2022-09-12T16:21:20.436Z,25.00
2022-09-12T16:23:49.554Z,25.00
2022-09-12T16:26:18.176Z,25.00
2022-09-12T16:28:48.246Z,25.00
2022-09-12T16:31:16.517Z,25.10
2022-09-12T16:33:44.691Z,25.10
2022-09-12T16:36:14.561Z,25.20
2022-09-12T16:38:43.259Z,25.30
2022-09-12T16:41:12.652Z,25.30
2022-09-12T16:43:41.385Z,25.40
2022-09-12T16:46:13.217Z,25.40
2022-09-12T16:48:49.395Z,25.40
2022-09-12T16:51:21.518Z,25.40
2022-09-12T16:53:50.523Z,25.20
2022-09-12T16:56:19.143Z,24.90
2022-09-12T16:58:47.823Z,24.70
2022-09-12T17:01:19.862Z,24.70
2022-09-12T17:03:48.601Z,24.80
2022-09-12T17:06:18.445Z,25.00
2022-09-12T17:08:48.612Z,25.00
2022-09-12T17:11:19.317Z,25.00
2022-09-12T17:14:07.519Z,25.10
2022-09-12T17:16:39.615Z,25.10
2022-09-12T17:19:09.256Z,25.00
2022-09-12T17:21:37.507Z,25.00
2022-09-12T17:24:05.938Z,24.90
2022-09-12T17:26:34.103Z,24.80
2022-09-12T17:29:03.142Z,24.80
2022-09-12T17:31:32.013Z,24.90
2022-09-12T17:34:02.816Z,24.90
2022-09-12T17:36:33.293Z,24.80
2022-09-12T17:39:03.689Z,24.80
2022-09-12T17:41:32.962Z,24.70
2022-09-12T17:44:03.512Z,24.70
2022-09-12T17:46:35.098Z,24.70
2022-09-12T17:49:06.566Z,24.60
2022-09-12T17:51:35.297Z,24.60
2022-09-12T17:54:05.828Z,24.50
2022-09-12T17:56:35.838Z,24.40
2022-09-12T17:59:04.767Z,24.30
2022-09-12T18:01:50.545Z,24.20
2022-09-12T18:04:20.947Z,24.10
2022-09-12T18:06:49.634Z,24.00
2022-09-12T18:09:19.810Z,23.90
2022-09-12T18:11:48.820Z,23.80
2022-09-12T18:14:17.609Z,23.70
2022-09-12T18:16:46.533Z,23.60
2022-09-12T18:19:15.867Z,23.60
2022-09-12T18:21:45.670Z,23.50
2022-09-12T18:24:13.956Z,23.40
2022-09-12T18:26:43.604Z,23.30
2022-09-12T18:29:12.424Z,23.20
2022-09-12T18:31:40.561Z,23.20
2022-09-12T18:34:12.679Z,23.10
2022-09-12T18:36:41.627Z,23.00
2022-09-12T18:39:12.383Z,22.90
2022-09-12T18:41:41.436Z,22.90
2022-09-12T18:44:11.646Z,22.90
2022-09-12T18:46:39.971Z,22.70
2022-09-12T18:49:09.517Z,22.70
2022-09-12T18:51:40.173Z,22.60
2022-09-12T18:54:14.907Z,22.50
2022-09-12T18:56:44.033Z,22.50
2022-09-12T18:59:14.930Z,22.40
2022-09-12T19:01:44.029Z,22.30
2022-09-12T19:04:14.008Z,22.30
2022-09-12T19:06:43.636Z,22.20
2022-09-12T19:09:15.643Z,22.10
2022-09-12T19:11:49.469Z,22.00
2022-09-12T19:14:18.905Z,22.00
2022-09-12T19:16:47.247Z,22.00
2022-09-12T19:19:15.884Z,21.90
2022-09-12T19:21:44.506Z,21.90
2022-09-12T19:24:14.780Z,21.80
2022-09-12T19:26:43.292Z,21.70
2022-09-12T19:29:13.996Z,21.70
2022-09-12T19:31:42.272Z,21.60
2022-09-12T19:34:12.204Z,21.60
2022-09-12T19:36:45.475Z,21.50
2022-09-12T19:39:17.389Z,21.40
2022-09-12T19:41:46.307Z,21.30
2022-09-12T19:44:14.860Z,21.30
2022-09-12T19:46:43.504Z,21.20
2022-09-12T19:49:12.966Z,21.20
2022-09-12T19:51:41.728Z,21.10
2022-09-12T19:54:10.106Z,21.00
2022-09-12T19:56:40.435Z,21.00
2022-09-12T19:59:08.921Z,20.90
2022-09-12T20:01:37.755Z,20.90
2022-09-12T20:04:06.831Z,20.80
2022-09-12T20:06:35.201Z,20.70
2022-09-12T20:09:03.694Z,20.70
2022-09-12T20:11:32.160Z,20.60
2022-09-12T20:14:01.889Z,20.60
2022-09-12T20:16:31.102Z,20.50
2022-09-12T20:19:01.143Z,20.50
2022-09-12T20:21:35.752Z,20.40
2022-09-12T20:24:06.175Z,20.40
2022-09-12T20:26:35.023Z,20.30
2022-09-12T20:29:05.815Z,20.30
2022-09-12T20:31:35.035Z,20.20
2022-09-12T20:34:03.679Z,20.20
2022-09-12T20:36:32.008Z,20.20
2022-09-12T20:39:02.554Z,20.10
2022-09-12T20:41:32.838Z,20.10
2022-09-12T20:44:01.463Z,20.00
2022-09-12T20:46:31.317Z,20.00
2022-09-12T20:48:59.909Z,20.00
2022-09-12T20:51:30.379Z,19.90
2022-09-12T20:53:59.931Z,19.90
2022-09-12T20:56:29.095Z,19.80
2022-09-12T20:58:57.604Z,19.80
2022-09-12T21:01:27.052Z,19.70
2022-09-12T21:03:56.964Z,19.50
2022-09-12T21:06:25.406Z,19.40
2022-09-12T21:08:54.676Z,19.40
2022-09-12T21:11:22.929Z,19.40
2022-09-12T21:13:52.887Z,19.40
2022-09-12T21:16:22.588Z,19.40
2022-09-12T21:18:56.644Z,19.40
2022-09-12T21:21:25.574Z,19.40
2022-09-12T21:23:55.594Z,19.40
2022-09-12T21:26:24.039Z,19.30
2022-09-12T21:28:52.211Z,19.30
2022-09-12T21:31:20.774Z,19.30
2022-09-12T21:33:49.146Z,19.20
2022-09-12T21:36:18.916Z,19.20
2022-09-12T21:38:47.099Z,19.20
2022-09-12T21:41:17.243Z,19.20
2022-09-12T21:43:46.127Z,19.10
2022-09-12T21:46:14.432Z,19.20
2022-09-12T21:48:44.731Z,19.10
2022-09-12T21:51:12.968Z,19.00
2022-09-12T21:53:42.627Z,19.00
2022-09-12T21:56:11.671Z,19.00
2022-09-12T21:58:39.851Z,18.90
2022-09-12T22:01:09.781Z,18.90
2022-09-12T22:03:37.971Z,18.90
2022-09-12T22:06:08.105Z,18.80
2022-09-12T22:08:37.471Z,18.80
2022-09-12T22:11:09.311Z,18.80
2022-09-12T22:13:39.311Z,18.70
2022-09-12T22:16:08.466Z,18.70
2022-09-12T22:18:38.028Z,18.70
2022-09-12T22:21:08.177Z,18.70
2022-09-12T22:23:53.671Z,18.60
2022-09-12T22:26:23.238Z,18.60
2022-09-12T22:28:52.023Z,18.50
2022-09-12T22:31:20.593Z,18.50
2022-09-12T22:33:50.027Z,18.50
2022-09-12T22:36:18.277Z,18.50
2022-09-12T22:38:46.500Z,18.50
2022-09-12T22:41:14.890Z,18.40
2022-09-12T22:43:44.378Z,18.40
2022-09-12T22:46:13.618Z,18.40
2022-09-12T22:48:42.850Z,18.40
2022-09-12T22:51:11.490Z,18.30
2022-09-12T22:53:39.985Z,18.30
2022-09-12T22:56:08.649Z,18.30
2022-09-12T22:58:38.131Z,18.30
2022-09-12T23:01:08.125Z,18.20
2022-09-12T23:03:37.056Z,18.20
2022-09-12T23:06:05.984Z,18.20
2022-09-12T23:08:36.364Z,18.20
2022-09-12T23:11:05.348Z,18.10
2022-09-12T23:13:34.132Z,18.10
2022-09-12T23:16:03.765Z,18.10
2022-09-12T23:18:35.915Z,18.10
2022-09-12T23:21:05.673Z,18.10
2022-09-12T23:23:33.863Z,18.00
2022-09-12T23:26:06.549Z,18.00
2022-09-12T23:28:35.579Z,17.90
2022-09-12T23:31:04.956Z,17.90
2022-09-12T23:33:34.651Z,17.90
2022-09-12T23:36:05.158Z,17.80
2022-09-12T23:38:34.744Z,17.80
2022-09-12T23:41:04.405Z,17.80
2022-09-12T23:43:32.779Z,17.70
2022-09-12T23:46:01.425Z,17.70
2022-09-12T23:48:30.021Z,17.70
2022-09-12T23:51:00.039Z,17.70
2022-09-12T23:53:29.622Z,17.70
2022-09-12T23:55:58.219Z,17.60
2022-09-12T23:58:26.972Z,17.60
